Time;durP1;ratioP1;P1;durP2;ratioP2;P2;SDS_P1;SDS_P2;PMS_P1;PMS_P2;Temp;Humidity;BMP_temperature;BMP_pressure;BME280_temperature;BME280_humidity;BME280_pressure;Samples;Min_cycle;Max_cycle;Signal;HPM_P1;HPM_P2
2023/06/12 00:02:03;;;;;;;8.00;6.60;;;;;;;27.16;30.99;101592.56;5049430;28;20143;-47
2023/06/12 00:04:29;;;;;;;7.60;6.47;;;;;;;27.37;30.77;101601.44;5047395;28;20124;-51
2023/06/12 00:06:56;;;;;;;10.38;6.88;;;;;;;27.10;30.81;101597.31;5047273;28;20079;-50
2023/06/12 00:09:21;;;;;;;9.43;6.78;;;;;;;27.04;31.01;101593.09;5048911;28;20037;-47
2023/06/12 00:11:47;;;;;;;8.85;6.40;;;;;;;26.98;30.97;101588.88;5045994;28;20400;-51
2023/06/12 00:14:12;;;;;;;8.07;6.45;;;;;;;27.31;30.61;101593.69;5048396;28;20048;-46
2023/06/12 00:16:37;;;;;;;10.25;6.82;;;;;;;26.94;30.79;101584.59;5048419;28;20033;-50
2023/06/12 00:19:03;;;;;;;9.13;6.88;;;;;;;27.19;30.65;101591.56;5048635;28;20037;-52
2023/06/12 00:21:28;;;;;;;10.98;6.75;;;;;;;27.35;30.41;101604.19;5047909;28;20557;-47
2023/06/12 00:23:54;;;;;;;8.77;6.50;;;;;;;27.13;30.48;101599.84;5048406;28;20063;-48
2023/06/12 00:26:19;;;;;;;11.02;6.80;;;;;;;27.18;30.41;101590.69;5048388;28;20522;-51
2023/06/12 00:28:45;;;;;;;8.55;6.57;;;;;;;26.92;30.87;101599.84;5048126;28;20098;-44
2023/06/12 00:31:10;;;;;;;9.32;6.30;;;;;;;27.25;30.57;101594.84;5050463;28;20061;-48
2023/06/12 00:33:36;;;;;;;7.90;6.60;;;;;;;26.79;31.16;101595.91;5051248;28;20045;-53
2023/06/12 00:36:02;;;;;;;9.32;6.63;;;;;;;27.05;30.48;101597.50;5052025;28;20032;-50
2023/06/12 00:38:27;;;;;;;13.73;6.25;;;;;;;27.00;30.68;101600.41;5052549;28;20045;-45
2023/06/12 00:40:53;;;;;;;12.48;6.40;;;;;;;26.68;30.99;101600.84;5052521;28;20080;-49
2023/06/12 00:43:18;;;;;;;10.35;6.40;;;;;;;26.61;31.07;101602.03;5052894;28;20029;-48
2023/06/12 00:45:44;;;;;;;9.93;6.28;;;;;;;26.85;30.62;101606.34;5051347;28;20554;-48
2023/06/12 00:48:10;;;;;;;10.18;6.28;;;;;;;26.78;30.73;101607.53;5052002;28;20029;-49
2023/06/12 00:50:35;;;;;;;12.15;6.07;;;;;;;26.83;30.72;101604.69;5052249;28;20244;-46
2023/06/12 00:53:01;;;;;;;8.27;6.22;;;;;;;27.11;30.84;101604.41;5033988;28;20063;-49
2023/06/12 00:55:31;;;;;;;12.27;6.18;;;;;;;26.36;31.41;101604.84;5051859;28;20071;-46
2023/06/12 00:57:56;;;;;;;11.30;6.78;;;;;;;26.55;30.96;101605.84;5051593;28;20041;-47
2023/06/12 01:00:22;;;;;;;9.90;6.60;;;;;;;26.50;31.11;101618.53;5052311;28;20040;-49
2023/06/12 01:02:50;;;;;;;9.18;6.68;;;;;;;26.68;30.75;101614.22;5051741;28;20036;-50
2023/06/12 01:05:19;;;;;;;10.88;6.50;;;;;;;26.56;30.82;101617.41;5051437;28;20464;-47
2023/06/12 01:08:15;;;;;;;9.90;6.25;;;;;;;26.71;30.94;101610.56;5051437;28;20384;-50
2023/06/12 01:10:44;;;;;;;9.23;6.63;;;;;;;26.61;31.19;101608.25;5051331;28;20052;-48
2023/06/12 01:13:11;;;;;;;9.60;6.50;;;;;;;26.37;31.61;101611.94;5051942;28;20040;-50
2023/06/12 01:15:37;;;;;;;8.40;6.03;;;;;;;26.35;31.49;101613.78;5050874;28;20041;-49
2023/06/12 01:18:05;;;;;;;11.02;6.43;;;;;;;26.51;31.35;101611.38;5051825;28;20514;-48
2023/06/12 01:20:31;;;;;;;9.98;6.20;;;;;;;26.46;31.38;101610.72;5051826;28;20072;-48
2023/06/12 01:23:04;;;;;;;7.90;6.20;;;;;;;26.58;31.35;101612.88;5051217;28;20506;-51
2023/06/12 01:25:48;;;;;;;8.98;6.18;;;;;;;26.38;31.11;101608.34;5051478;28;20086;-47
2023/06/12 01:28:43;;;;;;;10.65;6.65;;;;;;;26.58;31.31;101611.06;5051094;28;20029;-45
2023/06/12 01:31:20;;;;;;;11.63;6.50;;;;;;;26.58;31.29;101608.41;5051584;28;20057;-48
2023/06/12 01:33:56;;;;;;;8.50;6.28;;;;;;;26.45;30.89;101612.50;5051197;28;20052;-53
2023/06/12 01:36:24;;;;;;;14.32;6.47;;;;;;;26.57;30.97;101609.34;5050993;28;20036;-47
2023/06/12 01:38:55;;;;;;;9.07;6.47;;;;;;;26.50;31.01;101617.66;5050789;28;20029;-50
2023/06/12 01:41:22;;;;;;;9.82;6.78;;;;;;;26.15;31.13;101617.25;5051227;28;20037;-47
2023/06/12 01:43:48;;;;;;;9.77;6.63;;;;;;;26.15;31.23;101617.25;5048817;28;20040;-46
2023/06/12 01:46:13;;;;;;;8.85;6.00;;;;;;;26.54;30.82;101617.47;5050625;28;20029;-49
2023/06/12 01:48:40;;;;;;;11.18;6.05;;;;;;;26.37;31.30;101611.94;5032795;28;20452;-48
2023/06/12 01:51:05;;;;;;;11.23;6.30;;;;;;;26.26;31.27;101616.84;5051020;28;20550;-52
2023/06/12 01:53:31;;;;;;;9.30;6.38;;;;;;;26.34;31.41;101620.09;5049171;28;20095;-46
2023/06/12 01:55:57;;;;;;;12.93;6.57;;;;;;;26.27;31.14;101625.75;5050152;28;20053;-48
2023/06/12 01:58:22;;;;;;;11.13;6.43;;;;;;;26.65;31.16;101625.06;5051168;28;20186;-47
2023/06/12 02:00:47;;;;;;;7.95;6.35;;;;;;;26.53;31.37;101628.25;5050548;28;20499;-51
2023/06/12 02:03:13;;;;;;;9.25;6.38;;;;;;;26.43;31.15;101622.38;5050929;28;20075;-51
2023/06/12 02:05:38;;;;;;;8.20;6.20;;;;;;;26.38;31.73;101626.19;5050126;28;20041;-48
2023/06/12 02:08:03;;;;;;;7.80;6.15;;;;;;;26.37;32.16;101625.31;5050739;28;20048;-47
2023/06/12 02:10:29;;;;;;;9.18;6.50;;;;;;;26.32;32.64;101629.09;5050776;28;20040;-48
2023/06/12 02:12:54;;;;;;;9.60;6.28;;;;;;;26.29;32.83;101629.25;5050874;28;20043;-48
2023/06/12 02:15:20;;;;;;;11.10;6.57;;;;;;;26.14;33.86;101622.66;5051954;28;20508;-45
2023/06/12 02:17:45;;;;;;;9.75;6.70;;;;;;;26.03;33.86;101622.22;5051301;28;20245;-50
2023/06/12 02:20:11;;;;;;;7.78;6.25;;;;;;;25.94;33.60;101619.88;5051861;28;20398;-49
2023/06/12 02:22:36;;;;;;;8.65;6.60;;;;;;;25.69;33.51;101622.59;5051000;28;20037;-53
2023/06/12 02:25:02;;;;;;;9.45;6.88;;;;;;;25.56;33.31;101627.50;5050560;28;20086;-50
2023/06/12 02:27:27;;;;;;;9.90;6.93;;;;;;;25.48;33.84;101618.91;5050686;28;20411;-50
2023/06/12 02:29:52;;;;;;;8.95;6.60;;;;;;;25.45;33.49;101624.34;5049733;28;20029;-48
2023/06/12 02:32:18;;;;;;;9.65;6.45;;;;;;;25.66;33.83;101614.72;5050633;28;20507;-48
2023/06/12 02:34:43;;;;;;;9.45;6.65;;;;;;;25.63;33.02;101617.50;5049342;28;20499;-51
2023/06/12 02:37:09;;;;;;;7.90;6.30;;;;;;;25.66;33.72;101617.41;5050268;28;20503;-49
2023/06/12 02:39:35;;;;;;;8.80;6.70;;;;;;;25.70;33.91;101614.53;5050061;28;20064;-48
2023/06/12 02:42:00;;;;;;;10.23;6.65;;;;;;;25.41;33.98;101615.59;5049827;28;20616;-48
2023/06/12 02:44:26;;;;;;;9.02;6.90;;;;;;;25.44;34.36;101618.13;5049921;28;20547;-46
2023/06/12 02:46:56;;;;;;;12.15;6.63;;;;;;;25.51;33.94;101624.13;5049752;28;20037;-48
2023/06/12 02:49:23;;;;;;;12.63;7.10;;;;;;;25.21;34.79;101614.56;5050090;28;20029;-49
2023/06/12 02:51:49;;;;;;;9.35;6.88;;;;;;;25.34;34.06;101615.88;5049589;28;20041;-48
2023/06/12 02:54:16;;;;;;;10.02;6.82;;;;;;;25.20;34.59;101620.81;5049733;28;20072;-51
2023/06/12 02:56:47;;;;;;;9.20;7.00;;;;;;;25.23;34.18;101626.06;5049381;28;20033;-51
2023/06/12 02:59:18;;;;;;;10.70;6.78;;;;;;;25.07;34.58;101624.88;5050066;28;20037;-48
2023/06/12 03:01:44;;;;;;;7.95;6.50;;;;;;;24.96;34.87;101618.09;5031715;28;20120;-49
2023/06/12 03:04:15;;;;;;;9.40;6.63;;;;;;;25.10;34.75;101624.75;5049200;28;20051;-50
2023/06/12 03:06:41;;;;;;;9.18;6.82;;;;;;;25.18;34.52;101628.91;5049263;28;20411;-46
2023/06/12 03:09:08;;;;;;;8.20;6.43;;;;;;;25.18;34.17;101620.91;5049749;28;20029;-47
2023/06/12 03:11:35;;;;;;;9.80;6.80;;;;;;;25.04;34.21;101624.03;5049953;28;20047;-46
2023/06/12 03:14:00;;;;;;;10.55;6.90;;;;;;;25.08;34.76;101615.91;5049527;28;20029;-49
2023/06/12 03:16:26;;;;;;;11.13;6.78;;;;;;;25.18;34.45;101628.91;5049499;28;20051;-48
2023/06/12 03:18:51;;;;;;;10.30;7.18;;;;;;;25.01;34.77;101623.25;5049743;28;20041;-50
2023/06/12 03:21:17;;;;;;;10.77;6.97;;;;;;;24.64;35.11;101634.28;5040626;28;20103;-47
2023/06/12 03:23:42;;;;;;;7.97;6.35;;;;;;;25.03;35.05;101624.06;5048562;28;20037;-49
2023/06/12 03:26:08;;;;;;;10.60;6.50;;;;;;;24.92;34.77;101629.78;5049378;28;20494;-47
2023/06/12 03:28:36;;;;;;;10.60;7.00;;;;;;;24.94;35.49;101635.09;5050317;28;20112;-48
2023/06/12 03:31:02;;;;;;;13.77;6.68;;;;;;;24.86;34.95;101637.09;5050595;28;20025;-47
2023/06/12 03:33:27;;;;;;;9.13;6.90;;;;;;;24.85;35.61;101638.88;5051053;28;20067;-47
2023/06/12 03:35:52;;;;;;;8.25;6.45;;;;;;;25.00;35.79;101634.88;5048533;28;20036;-50
2023/06/12 03:38:18;;;;;;;12.40;7.13;;;;;;;24.78;35.69;101634.69;5049535;28;20028;-47
2023/06/12 03:40:43;;;;;;;10.73;6.63;;;;;;;24.78;36.05;101634.69;5049076;28;20041;-48
2023/06/12 03:43:08;;;;;;;8.55;6.72;;;;;;;24.85;35.59;101633.56;5050573;28;20072;-48
2023/06/12 03:45:33;;;;;;;9.15;7.18;;;;;;;24.84;36.17;101636.25;5051074;28;20033;-46
2023/06/12 03:47:59;;;;;;;13.93;6.90;;;;;;;24.84;36.76;101636.25;5049911;28;20496;-48
2023/06/12 03:50:24;;;;;;;12.75;6.97;;;;;;;24.82;36.61;101648.81;5050726;28;20491;-47
2023/06/12 03:52:50;;;;;;;8.93;7.05;;;;;;;24.76;36.37;101641.88;5050499;28;20041;-45
2023/06/12 03:55:15;;;;;;;9.93;6.97;;;;;;;24.66;36.59;101646.63;5050401;28;20094;-48
2023/06/12 03:57:41;;;;;;;10.45;6.93;;;;;;;24.63;36.56;101643.19;5050647;28;20120;-47
2023/06/12 04:00:08;;;;;;;9.70;7.22;;;;;;;24.74;36.60;101650.84;5051181;28;20040;-46
2023/06/12 04:02:33;;;;;;;9.65;6.90;;;;;;;24.80;36.70;101653.31;5051200;28;20033;-45
2023/06/12 04:04:58;;;;;;;10.45;7.10;;;;;;;24.76;36.67;101654.34;5032085;28;20040;-45
2023/06/12 04:07:26;;;;;;;12.50;6.80;;;;;;;24.90;36.30;101657.44;5054698;28;20040;-47
2023/06/12 04:09:51;;;;;;;10.98;7.20;;;;;;;24.76;36.51;101654.34;5054195;28;20033;-49
2023/06/12 04:12:16;;;;;;;9.85;7.10;;;;;;;25.01;36.74;101658.81;5053238;28;20037;-45
2023/06/12 04:14:42;;;;;;;12.52;7.07;;;;;;;24.95;36.13;101660.81;5052923;28;20115;-50
2023/06/12 04:17:07;;;;;;;12.25;6.90;;;;;;;25.07;36.18;101652.38;5053910;28;20048;-45
2023/06/12 04:19:32;;;;;;;9.27;6.45;;;;;;;25.11;35.75;101651.38;5051937;28;20067;-53
2023/06/12 04:22:00;;;;;;;10.20;6.78;;;;;;;25.29;35.50;101660.53;5034922;28;20486;-47
2023/06/12 04:24:30;;;;;;;10.48;7.00;;;;;;;25.09;36.05;101663.00;5052934;28;20116;-48
2023/06/12 04:27:00;;;;;;;11.85;7.00;;;;;;;25.27;35.88;101657.03;5052209;28;20052;-47
2023/06/12 04:29:26;;;;;;;9.70;6.65;;;;;;;25.39;35.81;101669.94;5052626;28;20033;-46
2023/06/12 04:31:54;;;;;;;9.30;7.45;;;;;;;25.27;36.13;101665.91;5052280;28;20086;-47
2023/06/12 04:34:20;;;;;;;9.63;7.32;;;;;;;25.13;35.92;101662.00;5052678;28;20033;-47
2023/06/12 04:36:46;;;;;;;13.77;10.93;;;;;;;25.31;36.29;101667.53;5052366;28;20056;-48
2023/06/12 04:39:13;;;;;;;11.23;7.00;;;;;;;25.19;36.02;101667.97;5034761;28;20514;-50
2023/06/12 04:41:40;;;;;;;10.00;6.93;;;;;;;25.43;35.64;101671.63;5052299;28;20037;-47
2023/06/12 04:44:06;;;;;;;9.18;6.63;;;;;;;25.45;35.38;101669.75;5052630;28;20422;-49
2023/06/12 04:46:32;;;;;;;11.35;6.85;;;;;;;25.49;35.14;101670.53;5052216;28;20040;-48
2023/06/12 04:48:59;;;;;;;8.20;6.30;;;;;;;25.67;36.09;101667.22;5051779;28;20144;-53
2023/06/12 04:51:24;;;;;;;10.07;6.10;;;;;;;25.86;35.36;101665.56;5052501;28;20446;-49
2023/06/12 04:53:53;;;;;;;9.70;6.97;;;;;;;25.93;34.47;101661.75;5051762;28;20033;-47
2023/06/12 04:56:21;;;;;;;10.98;6.43;;;;;;;26.11;34.28;101662.84;5051901;28;20116;-50
2023/06/12 04:58:47;;;;;;;8.68;6.68;;;;;;;26.03;34.43;101662.28;5052027;28;20036;-51
2023/06/12 05:01:14;;;;;;;15.73;6.70;;;;;;;26.10;34.01;101659.34;5052511;28;20035;-50
2023/06/12 05:03:40;;;;;;;10.10;6.78;;;;;;;25.90;33.73;101663.69;5033826;28;20124;-51
2023/06/12 05:06:06;;;;;;;10.15;6.93;;;;;;;25.96;33.38;101671.47;5051549;28;20044;-48
2023/06/12 05:08:32;;;;;;;9.40;6.60;;;;;;;25.93;33.25;101667.09;5051926;28;20033;-49
2023/06/12 05:10:57;;;;;;;15.00;7.03;;;;;;;26.53;32.69;101673.72;5051358;28;20037;-48
2023/06/12 05:13:22;;;;;;;10.45;6.70;;;;;;;27.10;31.77;101672.25;5052329;28;20029;-50
2023/06/12 05:15:47;;;;;;;10.40;6.50;;;;;;;28.64;29.50;101669.63;5051119;28;20128;-49
2023/06/12 05:18:13;;;;;;;13.98;6.57;;;;;;;29.81;27.61;101663.59;5051598;28;20112;-54
2023/06/12 05:20:39;;;;;;;11.05;6.10;;;;;;;30.72;25.83;101668.38;5051357;28;20076;-46
2023/06/12 05:23:05;;;;;;;9.68;6.05;;;;;;;31.49;25.30;101665.53;5034093;28;20029;-49
2023/06/12 05:25:30;;;;;;;8.75;6.10;;;;;;;31.94;24.45;101665.41;5051056;28;20028;-45
2023/06/12 05:27:55;;;;;;;7.80;5.72;;;;;;;32.60;23.78;101662.00;5050956;28;20432;-50
2023/06/12 05:30:21;;;;;;;12.15;5.60;;;;;;;33.47;22.12;101662.38;5051659;28;20408;-51
2023/06/12 05:32:46;;;;;;;8.23;5.30;;;;;;;33.94;22.13;101655.44;5051147;28;20465;-48
2023/06/12 05:35:12;;;;;;;9.68;5.85;;;;;;;34.00;21.76;101664.00;5049202;28;20029;-50
2023/06/12 05:37:37;;;;;;;11.27;5.35;;;;;;;34.22;21.89;101662.47;5050794;28;20037;-49
2023/06/12 05:40:05;;;;;;;9.68;5.55;;;;;;;34.05;21.69;101661.81;5051348;28;20027;-47
2023/06/12 05:42:30;;;;;;;11.63;5.75;;;;;;;34.18;22.11;101656.38;5051754;28;20064;-48
2023/06/12 05:44:56;;;;;;;10.52;5.80;;;;;;;34.50;22.10;101662.16;5050345;28;20503;-49
2023/06/12 05:47:21;;;;;;;12.60;5.40;;;;;;;34.38;21.89;101663.06;5051446;28;20051;-49
2023/06/12 05:49:46;;;;;;;10.57;5.40;;;;;;;34.29;21.92;101661.03;5050450;28;20033;-53
2023/06/12 05:52:12;;;;;;;8.85;5.72;;;;;;;34.22;22.33;101666.03;5051054;28;20050;-49
2023/06/12 05:54:37;;;;;;;12.05;5.60;;;;;;;34.77;21.70;101670.06;5050174;28;20455;-51
2023/06/12 05:57:03;;;;;;;10.98;5.18;;;;;;;35.43;20.62;101671.31;5050945;28;20029;-46
2023/06/12 05:59:28;;;;;;;8.35;5.40;;;;;;;36.01;19.91;101662.97;5033223;28;20684;-46
2023/06/12 06:01:57;;;;;;;13.00;5.40;;;;;;;35.55;20.52;101663.09;5050814;28;20085;-49
2023/06/12 06:04:22;;;;;;;10.32;5.40;;;;;;;36.20;19.16;101656.94;5050556;28;20075;-48
2023/06/12 06:06:48;;;;;;;9.57;5.32;;;;;;;36.36;19.06;101664.69;5050321;28;20033;-47
2023/06/12 06:09:15;;;;;;;8.52;5.40;;;;;;;36.39;19.40;101673.44;5050702;28;20499;-52
2023/06/12 06:11:40;;;;;;;7.50;4.70;;;;;;;36.89;19.29;101660.22;5049067;28;20124;-47
2023/06/12 06:14:05;;;;;;;8.57;5.20;;;;;;;37.21;18.61;101666.50;5050561;28;20031;-49
2023/06/12 06:16:31;;;;;;;7.35;4.90;;;;;;;37.78;17.61;101662.41;5050443;28;20119;-47
2023/06/12 06:18:56;;;;;;;11.02;5.10;;;;;;;37.58;18.39;101672.34;5049487;28;20041;-49
2023/06/12 06:21:21;;;;;;;8.35;4.70;;;;;;;37.64;17.81;101663.63;5048933;28;20033;-52
2023/06/12 06:23:47;;;;;;;10.15;4.93;;;;;;;37.99;17.94;101668.69;5049906;28;20029;-45
2023/06/12 06:26:12;;;;;;;9.18;5.50;;;;;;;36.97;19.66;101668.56;5050012;28;20037;-45
2023/06/12 06:28:38;;;;;;;8.38;4.82;;;;;;;37.79;18.79;101664.16;5048977;28;20036;-45
2023/06/12 06:31:09;;;;;;;10.07;5.07;;;;;;;37.91;17.81;101665.78;5050149;28;20162;-49
2023/06/12 06:33:35;;;;;;;8.23;4.82;;;;;;;39.00;16.72;101670.34;5050928;28;20495;-48
2023/06/12 06:36:00;;;;;;;10.95;5.22;;;;;;;38.38;17.08;101676.97;5047922;28;20044;-46
2023/06/12 06:38:26;;;;;;;10.05;4.50;;;;;;;37.56;18.78;101681.63;5050178;28;20036;-49
2023/06/12 06:40:51;;;;;;;11.40;5.03;;;;;;;38.40;17.13;101670.41;5049596;28;20033;-50
2023/06/12 06:43:17;;;;;;;11.07;4.68;;;;;;;38.02;17.33;101676.59;5049414;28;20033;-48
2023/06/12 06:45:43;;;;;;;9.65;4.82;;;;;;;38.15;17.54;101677.22;5049074;28;20044;-48
2023/06/12 06:48:11;;;;;;;10.55;5.00;;;;;;;38.17;18.01;101675.22;5049744;28;20266;-48
2023/06/12 06:50:36;;;;;;;7.18;5.03;;;;;;;38.41;17.00;101684.88;5048476;28;20091;-52
2023/06/12 06:53:02;;;;;;;8.43;5.03;;;;;;;38.54;17.11;101682.78;5049895;28;20388;-51
2023/06/12 06:55:28;;;;;;;7.70;4.72;;;;;;;39.15;16.25;101688.00;5049428;28;20041;-53
2023/06/12 06:57:54;;;;;;;8.68;5.00;;;;;;;39.06;16.55;101687.00;5049254;28;20037;-47
2023/06/12 07:00:21;;;;;;;7.00;4.93;;;;;;;38.67;16.94;101683.34;5049787;28;20037;-52
2023/06/12 07:02:47;;;;;;;6.88;4.70;;;;;;;38.80;17.07;101691.25;5049407;28;20151;-50
2023/06/12 07:05:13;;;;;;;12.20;4.80;;;;;;;38.38;17.34;101677.84;5049108;28;20119;-47
2023/06/12 07:07:38;;;;;;;7.65;4.63;;;;;;;38.28;18.34;101687.00;5046373;28;20130;-52
2023/06/12 07:10:05;;;;;;;7.32;4.60;;;;;;;39.15;16.47;101682.56;5048449;28;20515;-47
2023/06/12 07:12:33;;;;;;;8.75;5.20;;;;;;;39.26;16.65;101685.97;5048921;28;20052;-50
2023/06/12 07:14:58;;;;;;;12.57;4.68;;;;;;;39.08;16.53;101682.28;5048289;28;20092;-48
2023/06/12 07:17:23;;;;;;;7.40;4.60;;;;;;;39.35;16.91;101686.97;5049285;28;20029;-50
2023/06/12 07:19:48;;;;;;;9.70;4.80;;;;;;;39.24;16.41;101681.66;5048886;28;20036;-51
2023/06/12 07:22:14;;;;;;;8.40;4.93;;;;;;;38.62;17.08;101690.25;5049239;28;20086;-48
2023/06/12 07:24:39;;;;;;;10.40;4.70;;;;;;;39.18;16.40;101690.44;5046915;28;20132;-49
2023/06/12 07:27:04;;;;;;;7.85;4.80;;;;;;;39.65;15.00;101689.50;5045659;28;20029;-51
2023/06/12 07:29:30;;;;;;;6.43;4.95;;;;;;;39.30;16.31;101683.81;5042695;28;20029;-48
2023/06/12 07:31:55;;;;;;;9.02;4.85;;;;;;;39.09;16.04;101685.88;5048641;28;20033;-52
2023/06/12 07:34:20;;;;;;;6.60;4.50;;;;;;;39.20;16.61;101685.69;5048623;28;20029;-45
2023/06/12 07:36:46;;;;;;;9.02;4.30;;;;;;;39.93;15.97;101682.25;5048332;28;20657;-48
2023/06/12 07:39:11;;;;;;;6.78;4.22;;;;;;;39.19;16.34;101686.69;5048064;28;20033;-45
2023/06/12 07:41:39;;;;;;;9.40;4.82;;;;;;;39.46;16.34;101688.72;5047908;28;20116;-49
2023/06/12 07:44:07;;;;;;;9.45;4.57;;;;;;;39.11;16.37;101683.81;5048785;28;20143;-50
2023/06/12 07:46:33;;;;;;;8.30;4.57;;;;;;;38.92;17.22;101680.09;5049057;28;20514;-46
2023/06/12 07:48:58;;;;;;;7.95;4.60;;;;;;;39.46;16.47;101686.84;5048325;28;20112;-50
2023/06/12 07:51:23;;;;;;;7.37;4.63;;;;;;;40.06;15.59;101676.44;5049174;28;20047;-47
2023/06/12 07:53:49;;;;;;;8.77;4.30;;;;;;;40.02;16.39;101673.13;5048243;28;20295;-47
2023/06/12 07:56:16;;;;;;;7.18;4.60;;;;;;;38.87;16.71;101676.94;5048166;28;20087;-50
2023/06/12 07:58:42;;;;;;;8.60;4.80;;;;;;;38.99;15.66;101683.13;5048336;28;20056;-49
2023/06/12 08:01:07;;;;;;;6.93;4.75;;;;;;;40.24;15.78;101674.66;5048801;28;20527;-49
2023/06/12 08:03:38;;;;;;;8.25;4.70;;;;;;;40.16;14.78;101677.25;5048769;28;20037;-55
2023/06/12 08:06:11;;;;;;;7.47;4.85;;;;;;;40.20;15.05;101675.09;5048321;28;20033;-48
2023/06/12 08:08:42;;;;;;;;;;;;;;;39.89;15.18;101669.88;5048320;28;20087;-48
2023/06/12 08:11:08;;;;;;;7.45;4.70;;;;;;;40.35;15.29;101666.22;5048422;28;19921;-47
2023/06/12 08:13:34;;;;;;;9.00;4.50;;;;;;;40.13;15.27;101677.56;5030817;28;20033;-50
2023/06/12 08:16:00;;;;;;;5.82;4.53;;;;;;;39.66;15.48;101679.44;5047718;28;20033;-51
2023/06/12 08:18:25;;;;;;;8.10;4.85;;;;;;;39.84;15.14;101677.69;5048722;28;20129;-43
2023/06/12 08:20:50;;;;;;;8.60;4.78;;;;;;;40.10;14.97;101672.38;5048129;28;20036;-51
2023/06/12 08:23:16;;;;;;;5.97;4.50;;;;;;;40.33;14.88;101670.97;5048899;28;20060;-54
2023/06/12 08:25:41;;;;;;;10.07;4.60;;;;;;;40.00;15.72;101677.03;5047576;28;20751;-48
2023/06/12 08:28:06;;;;;;;7.13;4.53;;;;;;;40.31;14.61;101672.16;5048351;28;20032;-51
2023/06/12 08:30:31;;;;;;;6.28;4.60;;;;;;;40.26;14.10;101674.50;5048960;28;20315;-50
2023/06/12 08:32:57;;;;;;;8.30;4.53;;;;;;;40.25;14.77;101665.44;5048018;28;20083;-50
2023/06/12 08:35:22;;;;;;;6.35;4.70;;;;;;;40.21;14.34;101663.97;5048155;28;20111;-52
2023/06/12 08:37:47;;;;;;;7.15;4.65;;;;;;;39.02;15.01;101673.81;5048020;28;20037;-47
2023/06/12 08:40:13;;;;;;;6.75;5.20;;;;;;;38.05;17.35;101670.03;5048727;28;20037;-51
2023/06/12 08:42:39;;;;;;;9.55;5.75;;;;;;;37.12;17.02;101666.44;5048403;28;20029;-46
2023/06/12 08:45:09;;;;;;;16.88;10.15;;;;;;;36.40;17.73;101664.31;5048262;28;20045;-53
2023/06/12 08:47:36;;;;;;;17.77;8.68;;;;;;;36.14;18.66;101657.41;5049175;28;20055;-49
2023/06/12 08:50:03;;;;;;;7.40;5.65;;;;;;;35.06;18.02;101666.00;5048492;28;20033;-47
2023/06/12 08:52:29;;;;;;;8.20;5.22;;;;;;;35.07;19.88;101664.16;5050710;28;20041;-49
2023/06/12 08:54:56;;;;;;;13.48;7.60;;;;;;;34.12;19.27;101654.13;5051279;28;20032;-46
2023/06/12 08:57:22;;;;;;;10.43;5.55;;;;;;;33.34;20.05;101659.69;5052237;28;20029;-46
2023/06/12 08:59:47;;;;;;;12.07;5.68;;;;;;;33.83;20.09;101656.22;5051712;28;20128;-52
2023/06/12 09:02:15;;;;;;;8.40;5.60;;;;;;;33.20;19.86;101665.16;5052609;28;20082;-46
2023/06/12 09:04:48;;;;;;;7.85;5.40;;;;;;;33.52;20.61;101665.63;5031657;28;20038;-51
2023/06/12 09:07:17;;;;;;;8.65;5.38;;;;;;;33.59;20.00;101655.25;5043808;28;20029;-48
2023/06/12 09:09:45;;;;;;;9.48;5.38;;;;;;;33.13;20.27;101658.41;5051963;28;20131;-51
2023/06/12 09:12:15;;;;;;;8.82;5.88;;;;;;;33.45;19.22;101650.81;5052287;28;20040;-50
2023/06/12 09:14:44;;;;;;;7.53;5.57;;;;;;;33.46;19.99;101657.94;5051015;28;20045;-49
2023/06/12 09:17:10;;;;;;;8.38;6.03;;;;;;;33.45;19.26;101650.81;5051514;28;20025;-48
2023/06/12 09:19:37;;;;;;;10.60;5.22;;;;;;;33.76;19.39;101652.22;5052487;28;20052;-48
2023/06/12 09:22:03;;;;;;;7.78;5.13;;;;;;;33.64;19.85;101653.94;5052719;28;20095;-48
2023/06/12 09:24:28;;;;;;;9.20;5.30;;;;;;;33.51;19.50;101653.06;5051653;28;20128;-46
2023/06/12 09:26:57;;;;;;;7.43;5.00;;;;;;;33.75;18.65;101656.78;5051980;28;20116;-47
2023/06/12 09:29:30;;;;;;;11.02;5.40;;;;;;;33.31;19.07;101653.59;5051958;28;20033;-51
2023/06/12 09:31:58;;;;;;;11.63;5.40;;;;;;;33.49;19.71;101656.84;5050284;28;20039;-47
2023/06/12 09:34:24;;;;;;;9.65;5.45;;;;;;;33.25;18.54;101652.19;5051916;28;20535;-47
2023/06/12 09:36:49;;;;;;;11.07;5.15;;;;;;;33.50;19.33;101648.63;5051409;28;20061;-50
2023/06/12 09:39:17;;;;;;;10.20;5.28;;;;;;;33.58;18.95;101648.09;5051193;28;20116;-45
2023/06/12 09:41:49;;;;;;;21.27;5.20;;;;;;;33.66;18.22;101649.31;5050791;28;20029;-47
2023/06/12 09:44:25;;;;;;;6.95;5.20;;;;;;;33.90;18.62;101653.97;5051062;28;20108;-46
2023/06/12 09:46:51;;;;;;;9.48;5.50;;;;;;;33.40;17.82;101648.44;5050783;28;20511;-48
2023/06/12 09:49:24;;;;;;;7.85;5.00;;;;;;;33.96;17.29;101645.41;5050873;28;20041;-47
2023/06/12 09:51:51;;;;;;;9.27;5.03;;;;;;;33.41;17.71;101655.56;5050456;28;20033;-47
2023/06/12 09:54:19;;;;;;;9.15;4.93;;;;;;;33.75;17.21;101648.66;5050682;28;20424;-48
2023/06/12 09:56:46;;;;;;;7.82;5.10;;;;;;;33.83;17.92;101652.66;5051013;28;20029;-48
2023/06/12 09:59:16;;;;;;;6.28;5.03;;;;;;;33.76;17.36;101655.81;5050922;28;20502;-47
2023/06/12 10:01:46;;;;;;;8.95;4.82;;;;;;;33.79;16.73;101652.88;5033107;28;20132;-45
2023/06/12 10:04:14;;;;;;;7.32;5.10;;;;;;;33.48;17.52;101656.00;5049885;28;20372;-48
2023/06/12 10:06:42;;;;;;;7.32;5.13;;;;;;;33.58;17.34;101653.50;5049978;28;20036;-47
2023/06/12 10:09:08;;;;;;;6.38;4.95;;;;;;;33.60;17.66;101647.03;5050476;28;20033;-45
2023/06/12 10:11:36;;;;;;;11.25;5.55;;;;;;;33.73;18.19;101639.78;5050593;28;20087;-51
2023/06/12 10:14:02;;;;;;;6.95;5.22;;;;;;;33.91;17.90;101644.88;5050433;28;20033;-47
2023/06/12 10:16:30;;;;;;;8.75;5.00;;;;;;;33.86;18.01;101649.72;5049856;28;20060;-47
2023/06/12 10:18:56;;;;;;;10.15;5.53;;;;;;;33.87;18.92;101649.63;5050202;28;20029;-50
2023/06/12 10:21:22;;;;;;;9.85;5.68;;;;;;;34.07;18.67;101642.75;5049357;28;20087;-48
2023/06/12 10:23:51;;;;;;;7.68;5.53;;;;;;;33.59;18.46;101642.59;5049615;28;20487;-48
2023/06/12 10:26:16;;;;;;;9.60;5.68;;;;;;;33.29;18.92;101634.81;5049750;28;20451;-47
2023/06/12 10:28:42;;;;;;;8.25;5.32;;;;;;;33.66;19.22;101640.31;5048833;28;20037;-53
2023/06/12 10:31:11;;;;;;;10.38;5.57;;;;;;;33.83;18.63;101648.13;5050350;28;20037;-46
2023/06/12 10:33:38;;;;;;;8.48;5.43;;;;;;;33.31;18.76;101650.91;5049948;28;20114;-46
2023/06/12 10:36:13;;;;;;;6.97;5.20;;;;;;;33.64;18.41;101639.56;5048342;28;20085;-45
2023/06/12 10:38:47;;;;;;;7.57;5.30;;;;;;;33.39;17.99;101638.59;5049766;28;20033;-52
2023/06/12 10:41:12;;;;;;;6.15;5.07;;;;;;;33.48;17.08;101637.09;5049876;28;20041;-49
2023/06/12 10:43:39;;;;;;;7.95;4.97;;;;;;;33.50;16.75;101626.13;5049854;28;20449;-44
2023/06/12 10:46:11;;;;;;;6.13;5.03;;;;;;;33.88;16.78;101635.13;5049555;28;20083;-52
2023/06/12 10:48:46;;;;;;;7.95;5.32;;;;;;;33.99;17.20;101635.19;5049586;28;20044;-49
2023/06/12 10:51:12;;;;;;;7.93;5.53;;;;;;;34.07;17.35;101634.66;5050154;28;20040;-46
2023/06/12 10:53:43;;;;;;;7.65;5.50;;;;;;;33.76;17.66;101623.34;5049785;28;20090;-49
2023/06/12 10:56:08;;;;;;;6.25;5.20;;;;;;;33.48;17.86;101626.28;5049756;28;20401;-42
2023/06/12 10:58:41;;;;;;;7.70;5.22;;;;;;;33.72;17.75;101620.97;5049781;28;20044;-50
2023/06/12 11:01:12;;;;;;;10.73;5.05;;;;;;;34.05;17.77;101617.66;5050385;28;20033;-47
2023/06/12 11:03:39;;;;;;;7.85;5.20;;;;;;;34.02;17.97;101618.75;5049930;28;20513;-50
2023/06/12 11:06:13;;;;;;;13.43;5.50;;;;;;;33.67;17.87;101613.16;5049087;28;20098;-49
2023/06/12 11:08:41;;;;;;;10.45;5.28;;;;;;;33.82;17.89;101624.75;5049125;28;20414;-51
2023/06/12 11:11:10;;;;;;;6.45;5.13;;;;;;;34.17;17.83;101614.91;5031947;28;20044;-49
2023/06/12 11:13:43;;;;;;;10.45;5.53;;;;;;;33.68;18.39;101620.28;5049772;28;20029;-52
2023/06/12 11:16:21;;;;;;;8.25;5.57;;;;;;;33.95;18.10;101619.31;5048451;28;20024;-46
2023/06/12 11:18:46;;;;;;;7.20;5.30;;;;;;;34.22;17.94;101624.59;5048790;28;20501;-49
2023/06/12 11:21:12;;;;;;;9.80;5.50;;;;;;;33.88;17.35;101613.47;5049607;28;20190;-47